sensor_id;sensor_type;location;lat;lon;timestamp;P1;durP1;ratioP1;P2;durP2;ratioP2
60030;SDS011;45901;47.600;9.890;2023-10-13T00:02:09;5.63;;;2.00;;
60030;SDS011;45901;47.600;9.890;2023-10-13T00:04:36;4.40;;;2.20;;
60030;SDS011;45901;47.600;9.890;2023-10-13T00:07:03;8.10;;;2.50;;
60030;SDS011;45901;47.600;9.890;2023-10-13T00:09:35;7.93;;;2.30;;
60030;SDS011;45901;47.600;9.890;2023-10-13T00:12:03;7.30;;;2.00;;
60030;SDS011;45901;47.600;9.890;2023-10-13T00:14:33;5.67;;;2.40;;
60030;SDS011;45901;47.600;9.890;2023-10-13T00:17:01;5.90;;;1.93;;
60030;SDS011;45901;47.600;9.890;2023-10-13T00:19:30;6.60;;;2.37;;
60030;SDS011;45901;47.600;9.890;2023-10-13T00:22:03;8.80;;;2.60;;
60030;SDS011;45901;47.600;9.890;2023-10-13T00:24:37;6.23;;;2.57;;
60030;SDS011;45901;47.600;9.890;2023-10-13T00:27:11;6.07;;;2.97;;
60030;SDS011;45901;47.600;9.890;2023-10-13T00:29:56;7.03;;;2.50;;
60030;SDS011;45901;47.600;9.890;2023-10-13T00:32:47;8.70;;;3.07;;
60030;SDS011;45901;47.600;9.890;2023-10-13T00:35:20;7.17;;;2.77;;
60030;SDS011;45901;47.600;9.890;2023-10-13T00:37:54;5.47;;;2.20;;
60030;SDS011;45901;47.600;9.890;2023-10-13T00:40:23;7.77;;;2.20;;
60030;SDS011;45901;47.600;9.890;2023-10-13T00:43:05;5.20;;;2.37;;
60030;SDS011;45901;47.600;9.890;2023-10-13T00:45:46;12.67;;;2.20;;
60030;SDS011;45901;47.600;9.890;2023-10-13T00:48:20;8.90;;;2.63;;
60030;SDS011;45901;47.600;9.890;2023-10-13T00:50:50;6.33;;;2.47;;
60030;SDS011;45901;47.600;9.890;2023-10-13T00:53:21;5.53;;;2.33;;
60030;SDS011;45901;47.600;9.890;2023-10-13T00:55:51;6.60;;;2.30;;
60030;SDS011;45901;47.600;9.890;2023-10-13T00:58:21;7.23;;;1.90;;
60030;SDS011;45901;47.600;9.890;2023-10-13T01:00:53;9.70;;;2.43;;
60030;SDS011;45901;47.600;9.890;2023-10-13T01:03:22;5.73;;;2.17;;
60030;SDS011;45901;47.600;9.890;2023-10-13T01:05:52;6.87;;;2.00;;
60030;SDS011;45901;47.600;9.890;2023-10-13T01:08:30;11.40;;;2.30;;
60030;SDS011;45901;47.600;9.890;2023-10-13T01:11:04;6.70;;;2.63;;
60030;SDS011;45901;47.600;9.890;2023-10-13T01:13:32;8.00;;;2.40;;
60030;SDS011;45901;47.600;9.890;2023-10-13T01:16:01;9.10;;;2.13;;
60030;SDS011;45901;47.600;9.890;2023-10-13T01:18:28;6.70;;;2.13;;
60030;SDS011;45901;47.600;9.890;2023-10-13T01:20:55;9.07;;;2.13;;
60030;SDS011;45901;47.600;9.890;2023-10-13T01:23:27;6.90;;;2.00;;
60030;SDS011;45901;47.600;9.890;2023-10-13T01:26:03;8.50;;;1.97;;
60030;SDS011;45901;47.600;9.890;2023-10-13T01:28:31;7.67;;;2.83;;
60030;SDS011;45901;47.600;9.890;2023-10-13T01:31:09;13.03;;;2.57;;
60030;SDS011;45901;47.600;9.890;2023-10-13T01:33:50;6.33;;;2.07;;
60030;SDS011;45901;47.600;9.890;2023-10-13T01:36:20;5.57;;;2.23;;
60030;SDS011;45901;47.600;9.890;2023-10-13T01:38:48;6.80;;;1.93;;
60030;SDS011;45901;47.600;9.890;2023-10-13T01:41:16;5.20;;;1.97;;
60030;SDS011;45901;47.600;9.890;2023-10-13T01:43:44;10.27;;;2.60;;
60030;SDS011;45901;47.600;9.890;2023-10-13T01:46:11;5.17;;;1.97;;
60030;SDS011;45901;47.600;9.890;2023-10-13T01:48:40;5.87;;;2.00;;
60030;SDS011;45901;47.600;9.890;2023-10-13T01:51:08;7.27;;;2.30;;
60030;SDS011;45901;47.600;9.890;2023-10-13T01:53:35;4.70;;;1.90;;
60030;SDS011;45901;47.600;9.890;2023-10-13T01:56:05;11.33;;;2.47;;
60030;SDS011;45901;47.600;9.890;2023-10-13T01:58:35;5.07;;;2.10;;
60030;SDS011;45901;47.600;9.890;2023-10-13T02:01:06;7.00;;;2.67;;
60030;SDS011;45901;47.600;9.890;2023-10-13T02:03:33;6.13;;;2.27;;
60030;SDS011;45901;47.600;9.890;2023-10-13T02:06:06;7.90;;;2.43;;
60030;SDS011;45901;47.600;9.890;2023-10-13T02:08:36;5.40;;;1.83;;
60030;SDS011;45901;47.600;9.890;2023-10-13T02:11:09;8.93;;;1.93;;
60030;SDS011;45901;47.600;9.890;2023-10-13T02:13:35;5.20;;;2.00;;
60030;SDS011;45901;47.600;9.890;2023-10-13T02:16:06;5.23;;;2.13;;
60030;SDS011;45901;47.600;9.890;2023-10-13T02:18:33;6.93;;;1.80;;
60030;SDS011;45901;47.600;9.890;2023-10-13T02:21:06;5.73;;;2.07;;
60030;SDS011;45901;47.600;9.890;2023-10-13T02:23:38;7.77;;;1.87;;
60030;SDS011;45901;47.600;9.890;2023-10-13T02:26:10;13.13;;;2.50;;
60030;SDS011;45901;47.600;9.890;2023-10-13T02:28:37;6.47;;;2.13;;
60030;SDS011;45901;47.600;9.890;2023-10-13T02:31:05;9.37;;;2.30;;
60030;SDS011;45901;47.600;9.890;2023-10-13T02:33:32;9.33;;;1.90;;
60030;SDS011;45901;47.600;9.890;2023-10-13T02:36:00;7.20;;;1.80;;
60030;SDS011;45901;47.600;9.890;2023-10-13T02:38:30;7.33;;;2.40;;
60030;SDS011;45901;47.600;9.890;2023-10-13T02:41:10;6.53;;;2.20;;
60030;SDS011;45901;47.600;9.890;2023-10-13T02:43:37;7.47;;;2.20;;
60030;SDS011;45901;47.600;9.890;2023-10-13T02:46:04;6.93;;;1.90;;
60030;SDS011;45901;47.600;9.890;2023-10-13T02:48:32;6.23;;;2.43;;
60030;SDS011;45901;47.600;9.890;2023-10-13T02:51:05;7.00;;;2.00;;
60030;SDS011;45901;47.600;9.890;2023-10-13T02:53:40;10.50;;;2.47;;
60030;SDS011;45901;47.600;9.890;2023-10-13T02:56:13;6.97;;;2.03;;
60030;SDS011;45901;47.600;9.890;2023-10-13T02:58:46;7.43;;;1.97;;
60030;SDS011;45901;47.600;9.890;2023-10-13T03:01:18;7.97;;;2.03;;
60030;SDS011;45901;47.600;9.890;2023-10-13T03:03:50;9.40;;;2.10;;
60030;SDS011;45901;47.600;9.890;2023-10-13T03:06:20;7.70;;;2.27;;
60030;SDS011;45901;47.600;9.890;2023-10-13T03:08:49;6.73;;;2.00;;
60030;SDS011;45901;47.600;9.890;2023-10-13T03:11:18;5.20;;;2.03;;
60030;SDS011;45901;47.600;9.890;2023-10-13T03:13:49;7.43;;;2.17;;
60030;SDS011;45901;47.600;9.890;2023-10-13T03:16:17;7.00;;;1.77;;
60030;SDS011;45901;47.600;9.890;2023-10-13T03:18:46;6.57;;;1.80;;
60030;SDS011;45901;47.600;9.890;2023-10-13T03:21:21;7.77;;;2.67;;
60030;SDS011;45901;47.600;9.890;2023-10-13T03:23:56;5.90;;;2.00;;
60030;SDS011;45901;47.600;9.890;2023-10-13T03:26:32;7.03;;;2.77;;
60030;SDS011;45901;47.600;9.890;2023-10-13T03:29:01;5.97;;;2.17;;
60030;SDS011;45901;47.600;9.890;2023-10-13T03:31:34;7.17;;;2.00;;
60030;SDS011;45901;47.600;9.890;2023-10-13T03:34:04;6.50;;;1.97;;
60030;SDS011;45901;47.600;9.890;2023-10-13T03:36:36;5.47;;;2.00;;
60030;SDS011;45901;47.600;9.890;2023-10-13T03:39:35;9.97;;;2.13;;
60030;SDS011;45901;47.600;9.890;2023-10-13T03:42:03;7.67;;;2.03;;
60030;SDS011;45901;47.600;9.890;2023-10-13T03:44:30;12.10;;;2.50;;
60030;SDS011;45901;47.600;9.890;2023-10-13T03:46:57;8.43;;;2.37;;
60030;SDS011;45901;47.600;9.890;2023-10-13T03:49:43;6.60;;;2.47;;
60030;SDS011;45901;47.600;9.890;2023-10-13T03:52:10;6.97;;;2.10;;
60030;SDS011;45901;47.600;9.890;2023-10-13T03:54:38;9.97;;;2.73;;
60030;SDS011;45901;47.600;9.890;2023-10-13T03:57:07;6.60;;;3.10;;
60030;SDS011;45901;47.600;9.890;2023-10-13T03:59:37;9.20;;;2.80;;
60030;SDS011;45901;47.600;9.890;2023-10-13T04:02:04;6.37;;;2.20;;
60030;SDS011;45901;47.600;9.890;2023-10-13T04:04:37;8.07;;;2.10;;
60030;SDS011;45901;47.600;9.890;2023-10-13T04:07:13;5.23;;;2.30;;
60030;SDS011;45901;47.600;9.890;2023-10-13T04:10:04;8.73;;;1.90;;
60030;SDS011;45901;47.600;9.890;2023-10-13T04:13:01;5.17;;;2.27;;
60030;SDS011;45901;47.600;9.890;2023-10-13T04:15:45;5.03;;;2.47;;
60030;SDS011;45901;47.600;9.890;2023-10-13T04:18:27;11.30;;;2.43;;
60030;SDS011;45901;47.600;9.890;2023-10-13T04:21:12;7.90;;;2.23;;
60030;SDS011;45901;47.600;9.890;2023-10-13T04:24:05;15.03;;;3.30;;
60030;SDS011;45901;47.600;9.890;2023-10-13T04:26:48;13.20;;;2.30;;
60030;SDS011;45901;47.600;9.890;2023-10-13T04:29:32;9.20;;;2.80;;
60030;SDS011;45901;47.600;9.890;2023-10-13T04:32:15;8.23;;;2.23;;
60030;SDS011;45901;47.600;9.890;2023-10-13T04:34:53;9.67;;;3.00;;
60030;SDS011;45901;47.600;9.890;2023-10-13T04:37:24;10.07;;;3.47;;
60030;SDS011;45901;47.600;9.890;2023-10-13T04:39:54;8.70;;;3.60;;
60030;SDS011;45901;47.600;9.890;2023-10-13T04:42:33;12.40;;;4.80;;
60030;SDS011;45901;47.600;9.890;2023-10-13T04:45:16;11.20;;;4.13;;
60030;SDS011;45901;47.600;9.890;2023-10-13T04:48:01;11.30;;;3.60;;
60030;SDS011;45901;47.600;9.890;2023-10-13T04:50:44;10.17;;;3.10;;
60030;SDS011;45901;47.600;9.890;2023-10-13T04:53:15;10.90;;;3.40;;
60030;SDS011;45901;47.600;9.890;2023-10-13T04:55:58;11.07;;;3.07;;
60030;SDS011;45901;47.600;9.890;2023-10-13T04:58:33;9.87;;;3.10;;
60030;SDS011;45901;47.600;9.890;2023-10-13T05:01:27;11.13;;;3.03;;
60030;SDS011;45901;47.600;9.890;2023-10-13T05:04:13;8.50;;;2.73;;
60030;SDS011;45901;47.600;9.890;2023-10-13T05:07:04;10.47;;;3.27;;
60030;SDS011;45901;47.600;9.890;2023-10-13T05:09:50;7.40;;;2.73;;
60030;SDS011;45901;47.600;9.890;2023-10-13T05:12:52;9.50;;;3.00;;
60030;SDS011;45901;47.600;9.890;2023-10-13T05:15:42;7.67;;;3.53;;
60030;SDS011;45901;47.600;9.890;2023-10-13T05:18:29;9.17;;;2.87;;
60030;SDS011;45901;47.600;9.890;2023-10-13T05:21:13;10.33;;;3.43;;
60030;SDS011;45901;47.600;9.890;2023-10-13T05:23:58;13.87;;;3.83;;
60030;SDS011;45901;47.600;9.890;2023-10-13T05:26:42;17.23;;;4.00;;
60030;SDS011;45901;47.600;9.890;2023-10-13T05:29:27;15.57;;;4.17;;
60030;SDS011;45901;47.600;9.890;2023-10-13T05:32:12;10.63;;;3.90;;
60030;SDS011;45901;47.600;9.890;2023-10-13T05:34:57;20.43;;;4.57;;
60030;SDS011;45901;47.600;9.890;2023-10-13T05:37:44;18.20;;;4.77;;
60030;SDS011;45901;47.600;9.890;2023-10-13T05:40:29;16.60;;;4.17;;
60030;SDS011;45901;47.600;9.890;2023-10-13T05:43:13;16.60;;;4.50;;
60030;SDS011;45901;47.600;9.890;2023-10-13T05:46:01;19.10;;;4.47;;
60030;SDS011;45901;47.600;9.890;2023-10-13T05:48:43;12.87;;;3.33;;
60030;SDS011;45901;47.600;9.890;2023-10-13T05:51:36;12.60;;;3.70;;
60030;SDS011;45901;47.600;9.890;2023-10-13T05:54:11;10.87;;;3.30;;
60030;SDS011;45901;47.600;9.890;2023-10-13T05:56:56;14.90;;;3.77;;
60030;SDS011;45901;47.600;9.890;2023-10-13T05:59:41;9.70;;;3.30;;
60030;SDS011;45901;47.600;9.890;2023-10-13T06:02:26;13.97;;;3.90;;
60030;SDS011;45901;47.600;9.890;2023-10-13T06:05:11;15.70;;;4.70;;
60030;SDS011;45901;47.600;9.890;2023-10-13T06:07:58;13.90;;;4.37;;
60030;SDS011;45901;47.600;9.890;2023-10-13T06:10:42;15.67;;;6.63;;
60030;SDS011;45901;47.600;9.890;2023-10-13T06:13:27;12.27;;;4.93;;
60030;SDS011;45901;47.600;9.890;2023-10-13T06:16:13;10.17;;;2.80;;
60030;SDS011;45901;47.600;9.890;2023-10-13T06:19:00;7.00;;;2.63;;
60030;SDS011;45901;47.600;9.890;2023-10-13T06:21:46;16.37;;;3.17;;
60030;SDS011;45901;47.600;9.890;2023-10-13T06:24:32;12.03;;;2.50;;
60030;SDS011;45901;47.600;9.890;2023-10-13T06:27:17;10.80;;;2.33;;
60030;SDS011;45901;47.600;9.890;2023-10-13T06:30:01;9.30;;;2.53;;
60030;SDS011;45901;47.600;9.890;2023-10-13T06:32:30;12.97;;;2.60;;
60030;SDS011;45901;47.600;9.890;2023-10-13T06:34:58;8.93;;;2.30;;
60030;SDS011;45901;47.600;9.890;2023-10-13T06:37:31;12.57;;;2.60;;
60030;SDS011;45901;47.600;9.890;2023-10-13T06:40:01;16.97;;;4.83;;
60030;SDS011;45901;47.600;9.890;2023-10-13T06:42:47;17.53;;;4.23;;
60030;SDS011;45901;47.600;9.890;2023-10-13T06:45:15;9.10;;;2.80;;
60030;SDS011;45901;47.600;9.890;2023-10-13T06:47:43;12.40;;;2.43;;
60030;SDS011;45901;47.600;9.890;2023-10-13T06:50:10;7.60;;;2.17;;
60030;SDS011;45901;47.600;9.890;2023-10-13T06:52:41;10.90;;;2.00;;
60030;SDS011;45901;47.600;9.890;2023-10-13T06:55:10;5.77;;;1.73;;
60030;SDS011;45901;47.600;9.890;2023-10-13T06:57:42;9.63;;;2.60;;
60030;SDS011;45901;47.600;9.890;2023-10-13T07:00:09;7.67;;;1.97;;
60030;SDS011;45901;47.600;9.890;2023-10-13T07:02:44;11.07;;;2.70;;
60030;SDS011;45901;47.600;9.890;2023-10-13T07:05:12;11.30;;;2.20;;
60030;SDS011;45901;47.600;9.890;2023-10-13T07:07:40;7.63;;;1.57;;
60030;SDS011;45901;47.600;9.890;2023-10-13T07:10:10;8.03;;;1.93;;
60030;SDS011;45901;47.600;9.890;2023-10-13T07:12:41;9.87;;;1.90;;
60030;SDS011;45901;47.600;9.890;2023-10-13T07:15:09;7.87;;;1.97;;
60030;SDS011;45901;47.600;9.890;2023-10-13T07:17:44;9.07;;;1.70;;
60030;SDS011;45901;47.600;9.890;2023-10-13T07:20:12;8.57;;;1.80;;
60030;SDS011;45901;47.600;9.890;2023-10-13T07:22:48;5.10;;;1.73;;
60030;SDS011;45901;47.600;9.890;2023-10-13T07:25:24;9.83;;;2.57;;
60030;SDS011;45901;47.600;9.890;2023-10-13T07:27:51;7.17;;;1.80;;
60030;SDS011;45901;47.600;9.890;2023-10-13T07:30:19;7.50;;;1.90;;
60030;SDS011;45901;47.600;9.890;2023-10-13T07:32:51;7.80;;;1.90;;
60030;SDS011;45901;47.600;9.890;2023-10-13T07:35:20;7.03;;;1.73;;
60030;SDS011;45901;47.600;9.890;2023-10-13T07:37:49;10.40;;;1.90;;
60030;SDS011;45901;47.600;9.890;2023-10-13T07:40:19;4.97;;;1.30;;
60030;SDS011;45901;47.600;9.890;2023-10-13T07:43:06;5.37;;;1.40;;
60030;SDS011;45901;47.600;9.890;2023-10-13T07:45:36;7.47;;;1.57;;
60030;SDS011;45901;47.600;9.890;2023-10-13T07:48:05;7.03;;;1.80;;
60030;SDS011;45901;47.600;9.890;2023-10-13T07:50:42;10.70;;;2.00;;
60030;SDS011;45901;47.600;9.890;2023-10-13T07:53:10;7.30;;;1.70;;
60030;SDS011;45901;47.600;9.890;2023-10-13T07:55:48;11.93;;;2.37;;
60030;SDS011;45901;47.600;9.890;2023-10-13T07:58:21;6.73;;;2.00;;
60030;SDS011;45901;47.600;9.890;2023-10-13T08:00:50;9.47;;;2.13;;
60030;SDS011;45901;47.600;9.890;2023-10-13T08:03:31;9.17;;;1.93;;
60030;SDS011;45901;47.600;9.890;2023-10-13T08:06:08;7.03;;;2.20;;
60030;SDS011;45901;47.600;9.890;2023-10-13T08:08:44;11.17;;;2.40;;
60030;SDS011;45901;47.600;9.890;2023-10-13T08:11:15;9.27;;;2.17;;
60030;SDS011;45901;47.600;9.890;2023-10-13T08:13:53;11.20;;;2.17;;
60030;SDS011;45901;47.600;9.890;2023-10-13T08:16:24;6.33;;;2.10;;
60030;SDS011;45901;47.600;9.890;2023-10-13T08:19:11;9.10;;;2.17;;
60030;SDS011;45901;47.600;9.890;2023-10-13T08:21:40;4.93;;;1.80;;
60030;SDS011;45901;47.600;9.890;2023-10-13T08:24:14;5.07;;;1.77;;
60030;SDS011;45901;47.600;9.890;2023-10-13T08:26:50;7.73;;;1.90;;
60030;SDS011;45901;47.600;9.890;2023-10-13T08:29:24;7.93;;;1.90;;
60030;SDS011;45901;47.600;9.890;2023-10-13T08:32:11;5.70;;;2.80;;
60030;SDS011;45901;47.600;9.890;2023-10-13T08:34:49;4.70;;;1.67;;
60030;SDS011;45901;47.600;9.890;2023-10-13T08:37:47;12.43;;;2.73;;
60030;SDS011;45901;47.600;9.890;2023-10-13T08:40:26;8.90;;;3.17;;
60030;SDS011;45901;47.600;9.890;2023-10-13T08:43:11;8.53;;;2.10;;
60030;SDS011;45901;47.600;9.890;2023-10-13T08:45:40;7.97;;;2.30;;
60030;SDS011;45901;47.600;9.890;2023-10-13T08:48:25;13.37;;;2.27;;
60030;SDS011;45901;47.600;9.890;2023-10-13T08:50:57;7.57;;;2.30;;
60030;SDS011;45901;47.600;9.890;2023-10-13T08:53:36;6.67;;;2.20;;
60030;SDS011;45901;47.600;9.890;2023-10-13T08:56:11;7.00;;;2.27;;
60030;SDS011;45901;47.600;9.890;2023-10-13T08:58:42;15.83;;;2.70;;
60030;SDS011;45901;47.600;9.890;2023-10-13T09:01:33;7.00;;;1.80;;
60030;SDS011;45901;47.600;9.890;2023-10-13T09:04:00;4.50;;;2.17;;
60030;SDS011;45901;47.600;9.890;2023-10-13T09:06:42;6.77;;;2.23;;
60030;SDS011;45901;47.600;9.890;2023-10-13T09:09:12;9.53;;;2.30;;
60030;SDS011;45901;47.600;9.890;2023-10-13T09:11:51;6.87;;;2.00;;
60030;SDS011;45901;47.600;9.890;2023-10-13T09:14:33;6.90;;;1.77;;
60030;SDS011;45901;47.600;9.890;2023-10-13T09:17:04;3.57;;;1.80;;
60030;SDS011;45901;47.600;9.890;2023-10-13T09:19:47;9.03;;;2.10;;
60030;SDS011;45901;47.600;9.890;2023-10-13T09:22:24;7.63;;;2.83;;
60030;SDS011;45901;47.600;9.890;2023-10-13T09:24:53;8.77;;;2.20;;
60030;SDS011;45901;47.600;9.890;2023-10-13T09:27:24;5.33;;;2.37;;
60030;SDS011;45901;47.600;9.890;2023-10-13T09:29:58;8.87;;;2.53;;
60030;SDS011;45901;47.600;9.890;2023-10-13T09:32:44;8.17;;;2.00;;
60030;SDS011;45901;47.600;9.890;2023-10-13T09:35:11;6.80;;;2.60;;
60030;SDS011;45901;47.600;9.890;2023-10-13T09:37:48;6.03;;;2.00;;
60030;SDS011;45901;47.600;9.890;2023-10-13T09:40:16;7.73;;;2.07;;
60030;SDS011;45901;47.600;9.890;2023-10-13T09:42:58;9.17;;;2.60;;
60030;SDS011;45901;47.600;9.890;2023-10-13T09:45:30;9.73;;;2.03;;
60030;SDS011;45901;47.600;9.890;2023-10-13T09:48:03;5.20;;;2.13;;
60030;SDS011;45901;47.600;9.890;2023-10-13T09:50:41;4.90;;;1.67;;
60030;SDS011;45901;47.600;9.890;2023-10-13T09:53:11;4.97;;;1.40;;
60030;SDS011;45901;47.600;9.890;2023-10-13T09:55:41;6.03;;;1.87;;
60030;SDS011;45901;47.600;9.890;2023-10-13T09:58:26;9.53;;;2.03;;
60030;SDS011;45901;47.600;9.890;2023-10-13T10:45:47;4.83;;;1.57;;
60030;SDS011;45901;47.600;9.890;2023-10-13T10:48:17;7.53;;;1.90;;
60030;SDS011;45901;47.600;9.890;2023-10-13T10:50:51;12.35;;;2.35;;
60030;SDS011;45901;47.600;9.890;2023-10-13T10:53:20;6.18;;;2.20;;
60030;SDS011;45901;47.600;9.890;2023-10-13T10:56:03;7.65;;;2.55;;
60030;SDS011;45901;47.600;9.890;2023-10-13T10:58:34;8.50;;;2.03;;
60030;SDS011;45901;47.600;9.890;2023-10-13T11:01:10;8.68;;;1.80;;
60030;SDS011;45901;47.600;9.890;2023-10-13T11:03:52;8.85;;;1.88;;
60030;SDS011;45901;47.600;9.890;2023-10-13T11:06:22;6.00;;;1.88;;
60030;SDS011;45901;47.600;9.890;2023-10-13T11:09:01;9.23;;;1.70;;
60030;SDS011;45901;47.600;9.890;2023-10-13T11:11:32;5.40;;;1.70;;
60030;SDS011;45901;47.600;9.890;2023-10-13T11:14:00;7.75;;;1.70;;
60030;SDS011;45901;47.600;9.890;2023-10-13T11:16:47;7.13;;;2.00;;
60030;SDS011;45901;47.600;9.890;2023-10-13T11:19:19;10.02;;;2.25;;
60030;SDS011;45901;47.600;9.890;2023-10-13T11:21:50;6.60;;;1.83;;
60030;SDS011;45901;47.600;9.890;2023-10-13T11:24:19;9.38;;;2.20;;
60030;SDS011;45901;47.600;9.890;2023-10-13T11:26:47;6.00;;;2.25;;
60030;SDS011;45901;47.600;9.890;2023-10-13T11:29:15;6.78;;;1.95;;
60030;SDS011;45901;47.600;9.890;2023-10-13T11:31:45;5.60;;;2.10;;
60030;SDS011;45901;47.600;9.890;2023-10-13T11:34:22;6.68;;;2.10;;
60030;SDS011;45901;47.600;9.890;2023-10-13T11:36:50;6.35;;;2.28;;
60030;SDS011;45901;47.600;9.890;2023-10-13T11:39:17;11.25;;;2.10;;
60030;SDS011;45901;47.600;9.890;2023-10-13T11:41:48;5.72;;;1.75;;
60030;SDS011;45901;47.600;9.890;2023-10-13T11:44:20;5.50;;;2.00;;
60030;SDS011;45901;47.600;9.890;2023-10-13T11:46:51;10.43;;;2.80;;
60030;SDS011;45901;47.600;9.890;2023-10-13T11:49:41;6.50;;;2.33;;
60030;SDS011;45901;47.600;9.890;2023-10-13T11:52:08;7.60;;;2.55;;
60030;SDS011;45901;47.600;9.890;2023-10-13T11:54:44;8.63;;;2.55;;
60030;SDS011;45901;47.600;9.890;2023-10-13T11:57:12;6.18;;;1.90;;
60030;SDS011;45901;47.600;9.890;2023-10-13T11:59:42;11.63;;;2.13;;
60030;SDS011;45901;47.600;9.890;2023-10-13T12:02:20;9.27;;;2.00;;
60030;SDS011;45901;47.600;9.890;2023-10-13T12:05:05;11.05;;;2.38;;
60030;SDS011;45901;47.600;9.890;2023-10-13T12:07:41;6.78;;;2.50;;
60030;SDS011;45901;47.600;9.890;2023-10-13T12:10:13;6.43;;;2.25;;
60030;SDS011;45901;47.600;9.890;2023-10-13T12:12:59;4.95;;;2.00;;
60030;SDS011;45901;47.600;9.890;2023-10-13T12:15:31;7.43;;;2.17;;
60030;SDS011;45901;47.600;9.890;2023-10-13T12:18:14;5.43;;;2.10;;
60030;SDS011;45901;47.600;9.890;2023-10-13T12:20:44;11.65;;;3.20;;
60030;SDS011;45901;47.600;9.890;2023-10-13T12:23:12;5.75;;;2.45;;
60030;SDS011;45901;47.600;9.890;2023-10-13T12:25:42;7.07;;;2.45;;
60030;SDS011;45901;47.600;9.890;2023-10-13T12:28:26;5.30;;;2.03;;
60030;SDS011;45901;47.600;9.890;2023-10-13T12:30:56;7.28;;;2.47;;
60030;SDS011;45901;47.600;9.890;2023-10-13T12:33:34;7.35;;;2.40;;
60030;SDS011;45901;47.600;9.890;2023-10-13T12:36:05;6.97;;;2.10;;
60030;SDS011;45901;47.600;9.890;2023-10-13T12:38:34;8.20;;;2.38;;
60030;SDS011;45901;47.600;9.890;2023-10-13T12:41:16;7.47;;;2.42;;
60030;SDS011;45901;47.600;9.890;2023-10-13T12:44:11;5.30;;;1.95;;
60030;SDS011;45901;47.600;9.890;2023-10-13T12:47:31;5.85;;;2.30;;
60030;SDS011;45901;47.600;9.890;2023-10-13T12:51:00;5.93;;;2.03;;
60030;SDS011;45901;47.600;9.890;2023-10-13T12:54:03;11.30;;;2.30;;
60030;SDS011;45901;47.600;9.890;2023-10-13T12:59:57;7.35;;;2.42;;
60030;SDS011;45901;47.600;9.890;2023-10-13T13:13:13;7.28;;;2.33;;
60030;SDS011;45901;47.600;9.890;2023-10-13T13:31:46;7.55;;;2.15;;
60030;SDS011;45901;47.600;9.890;2023-10-13T13:34:23;7.50;;;2.28;;
60030;SDS011;45901;47.600;9.890;2023-10-13T13:36:56;12.50;;;2.08;;
60030;SDS011;45901;47.600;9.890;2023-10-13T13:39:31;6.47;;;2.38;;
60030;SDS011;45901;47.600;9.890;2023-10-13T13:42:06;6.88;;;2.70;;
60030;SDS011;45901;47.600;9.890;2023-10-13T13:45:06;6.38;;;1.95;;
60030;SDS011;45901;47.600;9.890;2023-10-13T13:48:06;7.40;;;2.50;;
60030;SDS011;45901;47.600;9.890;2023-10-13T13:51:09;7.13;;;2.00;;
60030;SDS011;45901;47.600;9.890;2023-10-13T13:54:22;11.30;;;2.72;;
60030;SDS011;45901;47.600;9.890;2023-10-13T13:57:01;7.72;;;2.30;;
60030;SDS011;45901;47.600;9.890;2023-10-13T14:06:55;4.60;;;2.08;;
60030;SDS011;45901;47.600;9.890;2023-10-13T14:10:02;9.70;;;2.10;;
60030;SDS011;45901;47.600;9.890;2023-10-13T14:12:51;5.55;;;2.50;;
60030;SDS011;45901;47.600;9.890;2023-10-13T14:15:36;9.27;;;2.97;;
60030;SDS011;45901;47.600;9.890;2023-10-13T14:18:41;8.63;;;2.28;;
60030;SDS011;45901;47.600;9.890;2023-10-13T14:28:01;17.35;;;2.97;;
60030;SDS011;45901;47.600;9.890;2023-10-13T14:30:30;11.98;;;3.30;;
60030;SDS011;45901;47.600;9.890;2023-10-13T14:33:55;16.58;;;3.33;;
60030;SDS011;45901;47.600;9.890;2023-10-13T14:36:29;6.63;;;2.30;;
60030;SDS011;45901;47.600;9.890;2023-10-13T14:39:19;9.80;;;3.17;;
60030;SDS011;45901;47.600;9.890;2023-10-13T14:45:14;9.35;;;2.50;;
60030;SDS011;45901;47.600;9.890;2023-10-13T14:47:42;13.60;;;2.78;;
60030;SDS011;45901;47.600;9.890;2023-10-13T14:50:12;7.93;;;2.63;;
60030;SDS011;45901;47.600;9.890;2023-10-13T14:52:48;6.10;;;2.30;;
60030;SDS011;45901;47.600;9.890;2023-10-13T14:59:21;7.30;;;2.50;;
60030;SDS011;45901;47.600;9.890;2023-10-13T15:01:49;10.05;;;2.90;;
60030;SDS011;45901;47.600;9.890;2023-10-13T15:04:22;8.10;;;2.80;;
60030;SDS011;45901;47.600;9.890;2023-10-13T15:06:50;8.48;;;2.65;;
60030;SDS011;45901;47.600;9.890;2023-10-13T15:09:17;7.28;;;2.75;;
60030;SDS011;45901;47.600;9.890;2023-10-13T15:11:48;9.20;;;2.63;;
60030;SDS011;45901;47.600;9.890;2023-10-13T15:14:18;5.53;;;2.22;;
60030;SDS011;45901;47.600;9.890;2023-10-13T15:16:48;11.48;;;2.70;;
60030;SDS011;45901;47.600;9.890;2023-10-13T15:19:15;7.82;;;2.83;;
60030;SDS011;45901;47.600;9.890;2023-10-13T15:21:42;7.50;;;2.40;;
60030;SDS011;45901;47.600;9.890;2023-10-13T15:24:14;10.48;;;2.55;;
60030;SDS011;45901;47.600;9.890;2023-10-13T15:26:42;6.53;;;2.42;;
60030;SDS011;45901;47.600;9.890;2023-10-13T15:29:13;12.05;;;2.80;;
60030;SDS011;45901;47.600;9.890;2023-10-13T15:31:44;8.52;;;2.83;;
60030;SDS011;45901;47.600;9.890;2023-10-13T15:34:30;8.77;;;3.20;;
60030;SDS011;45901;47.600;9.890;2023-10-13T15:36:58;7.95;;;2.65;;
60030;SDS011;45901;47.600;9.890;2023-10-13T15:39:30;6.95;;;2.63;;
60030;SDS011;45901;47.600;9.890;2023-10-13T15:41:57;10.40;;;2.85;;
60030;SDS011;45901;47.600;9.890;2023-10-13T15:44:25;5.70;;;2.60;;
60030;SDS011;45901;47.600;9.890;2023-10-13T15:46:56;5.13;;;2.60;;
60030;SDS011;45901;47.600;9.890;2023-10-13T15:49:24;8.20;;;2.77;;
60030;SDS011;45901;47.600;9.890;2023-10-13T15:51:53;6.57;;;2.53;;
60030;SDS011;45901;47.600;9.890;2023-10-13T15:54:21;4.63;;;2.20;;
60030;SDS011;45901;47.600;9.890;2023-10-13T15:56:49;12.50;;;3.20;;
60030;SDS011;45901;47.600;9.890;2023-10-13T15:59:17;9.20;;;2.60;;
60030;SDS011;45901;47.600;9.890;2023-10-13T16:01:44;8.17;;;2.97;;
60030;SDS011;45901;47.600;9.890;2023-10-13T16:04:14;10.60;;;2.87;;
60030;SDS011;45901;47.600;9.890;2023-10-13T16:06:45;10.13;;;2.30;;
60030;SDS011;45901;47.600;9.890;2023-10-13T16:09:15;8.50;;;3.33;;
60030;SDS011;45901;47.600;9.890;2023-10-13T16:11:48;10.87;;;2.77;;
60030;SDS011;45901;47.600;9.890;2023-10-13T16:14:16;7.73;;;2.70;;
60030;SDS011;45901;47.600;9.890;2023-10-13T16:16:44;11.47;;;2.73;;
60030;SDS011;45901;47.600;9.890;2023-10-13T16:19:15;8.57;;;2.37;;
60030;SDS011;45901;47.600;9.890;2023-10-13T16:21:46;7.57;;;2.60;;
60030;SDS011;45901;47.600;9.890;2023-10-13T16:24:13;6.43;;;2.63;;
60030;SDS011;45901;47.600;9.890;2023-10-13T16:26:43;8.43;;;3.17;;
60030;SDS011;45901;47.600;9.890;2023-10-13T16:32:07;6.77;;;3.20;;
60030;SDS011;45901;47.600;9.890;2023-10-13T16:34:49;8.43;;;3.70;;
60030;SDS011;45901;47.600;9.890;2023-10-13T16:37:40;9.83;;;4.40;;
60030;SDS011;45901;47.600;9.890;2023-10-13T16:40:07;8.17;;;3.90;;
60030;SDS011;45901;47.600;9.890;2023-10-13T16:42:38;9.03;;;4.27;;
60030;SDS011;45901;47.600;9.890;2023-10-13T16:45:06;11.00;;;4.93;;
60030;SDS011;45901;47.600;9.890;2023-10-13T16:47:42;10.47;;;4.70;;
60030;SDS011;45901;47.600;9.890;2023-10-13T16:50:12;10.97;;;4.43;;
60030;SDS011;45901;47.600;9.890;2023-10-13T16:52:42;8.37;;;4.50;;
60030;SDS011;45901;47.600;9.890;2023-10-13T16:55:51;14.23;;;4.20;;
60030;SDS011;45901;47.600;9.890;2023-10-13T16:58:30;11.87;;;3.47;;
60030;SDS011;45901;47.600;9.890;2023-10-13T17:01:10;8.83;;;2.83;;
60030;SDS011;45901;47.600;9.890;2023-10-13T17:03:39;6.83;;;2.80;;
60030;SDS011;45901;47.600;9.890;2023-10-13T17:06:31;8.87;;;2.93;;
60030;SDS011;45901;47.600;9.890;2023-10-13T17:08:59;4.67;;;2.50;;
60030;SDS011;45901;47.600;9.890;2023-10-13T17:11:29;7.33;;;2.97;;
60030;SDS011;45901;47.600;9.890;2023-10-13T17:13:57;5.30;;;2.43;;
60030;SDS011;45901;47.600;9.890;2023-10-13T17:16:25;6.53;;;3.53;;